South Aberdeen, Washington
Current Conditions -  °F | °C
As of 1:53 AM on Thursday 23 Oct 2014 (Local Time) from KHQM Reporting Station
Few Clouds Few Clouds  
Wind Chill: 54°   Ceiling: Unl
Heat Index: 54°   Visibility: 8mi
Dew Point: 52°   Wind: 8mph
Humidity: 93%   Direction: 100°E
Pressure: 29.7"   Gusts: NA
Location:  47.1445°N, 123.771°W
Report Text: KHQM 230853Z AUTO 10007KT 8SM FEW060 12/11 A2970 RMK AO2 SLP061 T01220111 51010
Loading
Personal Weather Stations






























Interactive Weather Map New forecast layout! Learn more

10-Day Weather Forecast

Advertisements
Track Severe Weather on mobile